Stephen M. White — WCU6542 — position and weather

sailwx.info

Track history (hours):
 
Tides and Currents Weather Stations Pressure Air Temp Water Temp Dewpoint Dewpoint Depression Visibility Wind Speed Wind Dir Waves Ship Positions

Stephen M. White

Owner: LOS ANGELES, CITY OF, SAN PEDRO, CA. More information available from US FCC via Universal Licensing System and Coast Guard Vessel Documentation Center.

Last reported at 2017-May-24 13:31 UTC. Time now 2017-May-24 13:29 UTC.
Position N 33°42' W 118°14'.

Length 13 m.

Type: Other ship. MMSI: 367049470.

Date/timePositionNaut miles runAvg speedWind from/ knotsBaromVisibWave heightAir tempDewpointWater temp
2017-May-24 13:31N 33°42' W 118°14'1 1.4
2017-May-24 13:00N 33°43' W 118°15'1 2.2
2017-May-24 12:29N 33°43' W 118°16'0 0.2
2017-May-24 12:00N 33°43' W 118°16'0 0.2
2017-May-24 11:28N 33°43' W 118°16'0 0.0
2017-May-24 10:54N 33°43' W 118°16'0 0.0
2017-May-24 10:30N 33°43' W 118°16'2 4.8
2017-May-24 10:01N 33°44' W 118°13'2 4.5
2017-May-24 09:29N 33°43' W 118°16'0 0.0
2017-May-24 08:58N 33°43' W 118°16'0 0.0
2017-May-24 08:30N 33°43' W 118°16'0 0.0
2017-May-24 08:00N 33°43' W 118°16'0 0.0
2017-May-24 07:30N 33°43' W 118°16'0 0.0
2017-May-24 07:00N 33°43' W 118°16'0 0.0
2017-May-24 06:28N 33°43' W 118°16'0 0.0
2017-May-24 05:59N 33°43' W 118°16'511.3
2017-May-24 05:31N 33°39' W 118°13'510.6
2017-May-24 05:00N 33°43' W 118°16'0 0.0
2017-May-24 04:30N 33°43' W 118°16'0 0.0
2017-May-24 04:00N 33°43' W 118°16'0 0.0
2017-May-24 03:30N 33°43' W 118°16'0 0.0
2017-May-24 02:58N 33°43' W 118°16'0 0.0
2017-May-24 02:30N 33°43' W 118°16'0 0.0
2017-May-24 02:00N 33°43' W 118°16'0 0.0
2017-May-24 01:30N 33°43' W 118°16'0 0.0
2017-May-24 01:00N 33°43' W 118°16'0 0.0
2017-May-24 00:30N 33°43' W 118°16'0 0.0
2017-May-24 00:00N 33°43' W 118°16'0 0.0
2017-May-23 23:30N 33°43' W 118°16'0 0.0
2017-May-23 22:59N 33°43' W 118°16'0 0.0
2017-May-23 22:30N 33°43' W 118°16'0 0.1
2017-May-23 22:00N 33°43' W 118°16'1 1.3
2017-May-23 21:29N 33°44' W 118°16'3 6.8
2017-May-23 21:00N 33°41' W 118°14'3 3.0
2017-May-23 19:56N 33°43' W 118°16'0 0.8
2017-May-23 19:30N 33°43' W 118°16'0 0.6
2017-May-23 18:52N 33°43' W 118°16'0 0.0
2017-May-23 18:20N 33°43' W 118°16'0 0.0
2017-May-23 18:00N 33°43' W 118°16'0 0.0
2017-May-23 17:28N 33°43' W 118°16'0 0.0
2017-May-23 16:57N 33°43' W 118°16'0 0.0
2017-May-23 16:30N 33°43' W 118°16'0 0.0
2017-May-23 15:57N 33°43' W 118°16'0 0.0
2017-May-23 15:27N 33°43' W 118°16'0 0.0
2017-May-23 15:00N 33°43' W 118°16'0 0.0
2017-May-23 13:48N 33°43' W 118°16'0 0.0
2017-May-23 13:16N 33°43' W 118°16'0 0.0
2017-May-23 12:57N 33°43' W 118°16'0 0.0
2017-May-23 12:29N 33°43' W 118°16'0 0.0
2017-May-23 11:58N 33°43' W 118°16'0 0.0
2017-May-23 11:13N 33°43' W 118°16'0 0.0
2017-May-23 10:58N 33°43' W 118°16'0 0.0
2017-May-23 10:28N 33°43' W 118°16'0 0.0
2017-May-23 10:00N 33°43' W 118°16'0 0.0
2017-May-23 09:30N 33°43' W 118°16'0 0.0
2017-May-23 09:00N 33°43' W 118°16'0 0.0
2017-May-23 08:22N 33°43' W 118°16'0 0.0
2017-May-23 08:00N 33°43' W 118°16'0 0.0
2017-May-23 07:30N 33°43' W 118°16'0 0.0
2017-May-23 06:58N 33°43' W 118°16'0 0.0
2017-May-23 06:30N 33°43' W 118°16'0 0.0
2017-May-23 05:59N 33°43' W 118°16'0 0.0
2017-May-23 05:29N 33°43' W 118°16'0 0.0
2017-May-23 05:00N 33°43' W 118°16'0 0.0
2017-May-23 04:26N 33°43' W 118°16'0 0.0
2017-May-23 03:56N 33°43' W 118°16'0 0.0
2017-May-23 03:30N 33°43' W 118°16'0 0.0
2017-May-23 03:00N 33°43' W 118°16'0 0.0
2017-May-23 02:30N 33°43' W 118°16'0 0.0
2017-May-23 01:58N 33°43' W 118°16'0 0.0
2017-May-23 01:30N 33°43' W 118°16'0 0.0
2017-May-23 01:00N 33°43' W 118°16'0 0.0
2017-May-23 00:30N 33°43' W 118°16'0 0.0
2017-May-23 00:00N 33°43' W 118°16'0 0.0
2017-May-22 23:30N 33°43' W 118°16'0 0.0
2017-May-22 23:00N 33°43' W 118°16'0 0.0
2017-May-22 22:28N 33°43' W 118°16'0 0.0
2017-May-22 22:00N 33°43' W 118°16'0 0.0
2017-May-22 21:30N 33°43' W 118°16'1 2.9
2017-May-22 20:59N 33°42' W 118°15'0 0.3
2017-May-22 20:30N 33°42' W 118°15'2 3.3
2017-May-22 20:00N 33°43' W 118°16'0 0.0
2017-May-22 19:30N 33°43' W 118°16'0 0.0
2017-May-22 19:00N 33°43' W 118°16'0 0.0
2017-May-22 18:30N 33°43' W 118°16'0 0.0
2017-May-22 18:00N 33°43' W 118°16'0 0.0
2017-May-22 17:30N 33°43' W 118°16'0 0.0
2017-May-22 17:00N 33°43' W 118°16'0 0.0
2017-May-22 16:03N 33°43' W 118°16'0 0.0
2017-May-22 15:58N 33°43' W 118°16'0 0.0
2017-May-22 15:30N 33°43' W 118°16'0 0.0
2017-May-22 14:53N 33°43' W 118°16'0 0.0
2017-May-22 14:00N 33°43' W 118°16'0 0.0
2017-May-22 13:25N 33°43' W 118°16'0 0.8
2017-May-22 13:00N 33°43' W 118°16'1 2.3
2017-May-22 12:30N 33°42' W 118°15'1 2.9
2017-May-22 12:00N 33°43' W 118°16'1 1.8
2017-May-22 11:30N 33°43' W 118°15'1 1.8
2017-May-22 11:00N 33°43' W 118°16'0 0.0
2017-May-22 10:30N 33°43' W 118°16'0 0.0
2017-May-22 10:00N 33°43' W 118°16'0 0.0
2017-May-22 09:30N 33°43' W 118°16'0 0.0
2017-May-22 09:00N 33°43' W 118°16'0 0.0
2017-May-22 08:30N 33°43' W 118°16'0 0.0
2017-May-22 08:00N 33°43' W 118°16'0 0.0
2017-May-22 07:27N 33°43' W 118°16'0 0.0
2017-May-22 07:00N 33°43' W 118°16'0 0.0
2017-May-22 06:30N 33°43' W 118°16'0 0.0
2017-May-22 06:00N 33°43' W 118°16'0 0.0
2017-May-22 05:30N 33°43' W 118°16'0 0.0
2017-May-22 05:00N 33°43' W 118°16'0 0.0
2017-May-22 04:30N 33°43' W 118°16'0 0.0
2017-May-22 04:00N 33°43' W 118°16'2 3.9
2017-May-22 03:30N 33°42' W 118°15'2 4.0
2017-May-22 03:00N 33°43' W 118°16'0 0.0
2017-May-22 02:27N 33°43' W 118°16'0 0.0
2017-May-22 01:59N 33°43' W 118°16'0 0.0
2017-May-22 01:28N 33°43' W 118°16'0 0.0
2017-May-22 01:00N 33°43' W 118°16'0 0.0
2017-May-22 00:30N 33°43' W 118°16'0 0.0
2017-May-22 00:00N 33°43' W 118°16'0 0.0
2017-May-21 23:30N 33°43' W 118°16'0 0.0
2017-May-21 23:00N 33°43' W 118°16'0 0.0
2017-May-21 22:30N 33°43' W 118°16'1 1.9
2017-May-21 22:00N 33°43' W 118°15'1 1.9
2017-May-21 21:31N 33°43' W 118°16'0 0.1
2017-May-21 21:01N 33°43' W 118°16'0 0.1
2017-May-21 20:30N 33°43' W 118°16'0 0.0
2017-May-21 20:00N 33°43' W 118°16'0 0.0
2017-May-21 19:30N 33°43' W 118°16'0 0.0
2017-May-21 19:00N 33°43' W 118°16'0 0.0
2017-May-21 18:30N 33°43' W 118°16'0 0.0
2017-May-21 18:00N 33°43' W 118°16'1 2.6
2017-May-21 17:30N 33°43' W 118°15'1 1.5
2017-May-21 16:36N 33°43' W 118°16'0 0.0
2017-May-21 16:30N 33°43' W 118°16'0 0.0
2017-May-21 16:00N 33°43' W 118°16'0 0.0
2017-May-21 15:30N 33°43' W 118°16'0 0.0
2017-May-21 15:00N 33°43' W 118°16'0 0.0
2017-May-21 14:00N 33°43' W 118°16'0 0.0
2017-May-21 13:30N 33°43' W 118°16'0 0.0
2017-May-21 13:00N 33°43' W 118°16'0 0.0
2017-May-21 12:30N 33°43' W 118°16'0 0.0
2017-May-21 12:00N 33°43' W 118°16'0 0.0
2017-May-21 11:30N 33°43' W 118°16'1 1.4
2017-May-21 11:00N 33°43' W 118°16'1 1.3
2017-May-21 10:30N 33°43' W 118°16'0 0.1
2017-May-21 10:00N 33°43' W 118°16'0 0.0
2017-May-21 09:30N 33°43' W 118°16'0 0.0
2017-May-21 09:00N 33°43' W 118°16'0 0.0
2017-May-21 08:30N 33°43' W 118°16'0 0.0
2017-May-21 08:00N 33°43' W 118°16'0 0.0
2017-May-21 07:30N 33°43' W 118°16'0 0.0
2017-May-21 07:00N 33°43' W 118°16'0 0.0
2017-May-21 06:31N 33°43' W 118°16'0 0.0
2017-May-21 06:00N 33°43' W 118°16'0 0.0
2017-May-21 05:31N 33°43' W 118°16'0 0.0
2017-May-21 05:01N 33°43' W 118°16'0 0.0
2017-May-21 04:31N 33°43' W 118°16'0 0.0
2017-May-21 03:59N 33°43' W 118°16'0 0.0
2017-May-21 03:30N 33°43' W 118°16'0 0.0
2017-May-21 03:01N 33°43' W 118°16'0 0.0
2017-May-21 02:30N 33°43' W 118°16'0 0.4
2017-May-21 02:00N 33°43' W 118°16'0 0.4
2017-May-21 01:30N 33°43' W 118°16'0 0.0
2017-May-21 01:00N 33°43' W 118°16'0 0.0
2017-May-21 00:30N 33°43' W 118°16'0 0.0
2017-May-21 00:00N 33°43' W 118°16'0 0.0
2017-May-20 23:30N 33°43' W 118°16'0 0.0
2017-May-20 23:00N 33°43' W 118°16'0 0.0
2017-May-20 22:30N 33°43' W 118°16'0 0.0
2017-May-20 22:00N 33°43' W 118°16'0 0.0
2017-May-20 21:30N 33°43' W 118°16'0 0.0
2017-May-20 21:00N 33°43' W 118°16'1 1.8
2017-May-20 20:30N 33°43' W 118°15'1 1.3
2017-May-20 19:50N 33°43' W 118°16'0 0.0
2017-May-20 19:26N 33°43' W 118°16'0 0.0
2017-May-20 18:12N 33°43' W 118°16'0 0.0
2017-May-20 18:00N 33°43' W 118°16'0 0.0
2017-May-20 17:30N 33°43' W 118°16'0 0.0
2017-May-20 17:00N 33°43' W 118°16'0 0.0
2017-May-20 16:30N 33°43' W 118°16'0 0.0
2017-May-20 16:00N 33°43' W 118°16'0 0.0
2017-May-20 15:30N 33°43' W 118°16'0 0.0
2017-May-20 15:00N 33°43' W 118°16'0 0.0
2017-May-20 14:00N 33°43' W 118°16'1 3.0
2017-May-20 13:30N 33°42' W 118°15'1 1.4
2017-May-20 13:00N 33°43' W 118°15'1 1.5
2017-May-20 12:30N 33°43' W 118°16'0 0.1
2017-May-20 12:00N 33°43' W 118°16'0 0.0
2017-May-20 11:30N 33°43' W 118°16'0 0.0
2017-May-20 11:00N 33°43' W 118°16'0 0.0
2017-May-20 10:30N 33°43' W 118°16'0 0.0
2017-May-20 10:00N 33°43' W 118°16'0 0.0
2017-May-20 09:29N 33°43' W 118°16'0 0.0
2017-May-20 09:00N 33°43' W 118°16'0 0.0
2017-May-20 08:30N 33°43' W 118°16'0 0.0
2017-May-20 08:00N 33°43' W 118°16'2 4.0
2017-May-20 07:30N 33°43' W 118°14'2 3.9
2017-May-20 07:01N 33°43' W 118°16'0 0.0
2017-May-20 06:31N 33°43' W 118°16'0 0.0
2017-May-20 06:01N 33°43' W 118°16'0 0.0
2017-May-20 05:30N 33°43' W 118°16'0 0.0
2017-May-20 05:01N 33°43' W 118°16'0 0.0
2017-May-20 04:31N 33°43' W 118°16'0 0.0
2017-May-20 04:00N 33°43' W 118°16'1 0.8
2017-May-20 02:19N 33°42' W 118°15'1 4.4
2017-May-20 02:00N 33°43' W 118°16'0 0.0
2017-May-20 01:29N 33°43' W 118°16'2 3.7
2017-May-20 01:00N 33°42' W 118°15'2 3.5
2017-May-20 00:30N 33°43' W 118°16'0 0.0
2017-May-20 00:00N 33°43' W 118°16'0 0.0
2017-May-19 23:30N 33°43' W 118°16'0 0.0
2017-May-19 23:00N 33°43' W 118°16'0 0.0
2017-May-19 22:30N 33°43' W 118°16'0 0.9
2017-May-19 22:00N 33°43' W 118°16'0 0.9
2017-May-19 21:30N 33°43' W 118°16'0 0.0
2017-May-19 20:59N 33°43' W 118°16'0 0.0
2017-May-19 20:29N 33°43' W 118°16'0 0.0
2017-May-19 19:53N 33°43' W 118°16'0 0.0
2017-May-19 19:30N 33°43' W 118°16'0 0.0
2017-May-19 18:33N 33°43' W 118°16'0 0.0
2017-May-19 18:29N 33°43' W 118°16'0 0.0
2017-May-19 18:00N 33°43' W 118°16'0 0.0
2017-May-19 17:30N 33°43' W 118°16'0 0.8
2017-May-19 17:00N 33°43' W 118°16'0 0.8
2017-May-19 16:30N 33°43' W 118°16'0 0.0
2017-May-19 16:00N 33°43' W 118°16'0 0.0
2017-May-19 15:30N 33°43' W 118°16'0 0.0
2017-May-19 15:00N 33°43' W 118°16'0 0.0
2017-May-19 14:00N 33°43' W 118°16'0 0.0
2017-May-19 13:30N 33°43' W 118°16'0 0.0
2017-May-19 13:00N 33°43' W 118°16'0 0.0
2017-May-19 12:30N 33°43' W 118°16'510.3
2017-May-19 12:00N 33°40' W 118°11'510.2
2017-May-19 11:30N 33°43' W 118°16'0 0.1
2017-May-19 11:00N 33°43' W 118°16'0 0.0
2017-May-19 10:25N 33°43' W 118°16'0 0.0
2017-May-19 10:00N 33°43' W 118°16'0 0.0
2017-May-19 09:30N 33°43' W 118°16'0 0.0
2017-May-19 09:00N 33°43' W 118°16'0 0.0
2017-May-19 08:30N 33°43' W 118°16'0 0.0
2017-May-19 07:56N 33°43' W 118°16'0 0.0
2017-May-19 07:30N 33°43' W 118°16'1 2.9
2017-May-19 07:00N 33°42' W 118°15'1 2.9
2017-May-19 06:30N 33°43' W 118°16'0 0.0
2017-May-19 06:00N 33°43' W 118°16'0 0.0
2017-May-19 05:30N 33°43' W 118°16'0 0.0
2017-May-19 05:00N 33°43' W 118°16'0 0.0
2017-May-19 04:30N 33°43' W 118°16'0 0.0
2017-May-19 04:00N 33°43' W 118°16'0 0.0
2017-May-19 03:30N 33°43' W 118°16'0 0.0
2017-May-19 03:00N 33°43' W 118°16'0 0.0
2017-May-19 02:30N 33°43' W 118°16'0 0.8
2017-May-19 02:00N 33°43' W 118°16'0 0.6
2017-May-19 01:30N 33°43' W 118°16'1 1.1
2017-May-19 01:00N 33°43' W 118°16'0 0.0
2017-May-19 00:31N 33°43' W 118°16'0 0.0
2017-May-19 00:00N 33°43' W 118°16'0 0.0
2017-May-18 23:31N 33°43' W 118°16'0 0.0
2017-May-18 23:00N 33°43' W 118°16'3 6.0
2017-May-18 22:29N 33°41' W 118°14'3 6.5
2017-May-18 22:00N 33°43' W 118°16'0 0.0
2017-May-18 21:29N 33°43' W 118°16'3 7.0
2017-May-18 21:00N 33°40' W 118°14'3 6.9
2017-May-18 20:30N 33°43' W 118°16'  
Track history (hours):
 
Tides and Currents Weather Stations Pressure Air Temp Water Temp Dewpoint Dewpoint Depression Visibility Wind Speed Wind Dir Waves Ship Positions

Stephen M. White

Owner: LOS ANGELES, CITY OF, SAN PEDRO, CA. More information available from US FCC via Universal Licensing System and Coast Guard Vessel Documentation Center.

Last reported at 2017-May-24 13:31 UTC. Time now 2017-May-24 13:29 UTC.
Position N 33°42' W 118°14'.

Length 13 m.

Type: Other ship. MMSI: 367049470.

Date/timePositionNaut miles runAvg speedWind from/ knotsBaromVisibWave heightAir tempDewpointWater temp
2017-May-24 13:31N 33°42' W 118°14'1 1.4
2017-May-24 13:00N 33°43' W 118°15'1 2.2
2017-May-24 12:29N 33°43' W 118°16'0 0.2
2017-May-24 12:00N 33°43' W 118°16'0 0.2
2017-May-24 11:28N 33°43' W 118°16'0 0.0
2017-May-24 10:54N 33°43' W 118°16'0 0.0
2017-May-24 10:30N 33°43' W 118°16'2 4.8
2017-May-24 10:01N 33°44' W 118°13'2 4.5
2017-May-24 09:29N 33°43' W 118°16'0 0.0
2017-May-24 08:58N 33°43' W 118°16'0 0.0
2017-May-24 08:30N 33°43' W 118°16'0 0.0
2017-May-24 08:00N 33°43' W 118°16'0 0.0
2017-May-24 07:30N 33°43' W 118°16'0 0.0
2017-May-24 07:00N 33°43' W 118°16'0 0.0
2017-May-24 06:28N 33°43' W 118°16'0 0.0
2017-May-24 05:59N 33°43' W 118°16'511.3
2017-May-24 05:31N 33°39' W 118°13'510.6
2017-May-24 05:00N 33°43' W 118°16'0 0.0
2017-May-24 04:30N 33°43' W 118°16'0 0.0
2017-May-24 04:00N 33°43' W 118°16'0 0.0
2017-May-24 03:30N 33°43' W 118°16'0 0.0
2017-May-24 02:58N 33°43' W 118°16'0 0.0
2017-May-24 02:30N 33°43' W 118°16'0 0.0
2017-May-24 02:00N 33°43' W 118°16'0 0.0
2017-May-24 01:30N 33°43' W 118°16'0 0.0
2017-May-24 01:00N 33°43' W 118°16'0 0.0
2017-May-24 00:30N 33°43' W 118°16'0 0.0
2017-May-24 00:00N 33°43' W 118°16'0 0.0
2017-May-23 23:30N 33°43' W 118°16'0 0.0
2017-May-23 22:59N 33°43' W 118°16'0 0.0
2017-May-23 22:30N 33°43' W 118°16'0 0.1
2017-May-23 22:00N 33°43' W 118°16'1 1.3
2017-May-23 21:29N 33°44' W 118°16'3 6.8
2017-May-23 21:00N 33°41' W 118°14'3 3.0
2017-May-23 19:56N 33°43' W 118°16'0 0.8
2017-May-23 19:30N 33°43' W 118°16'0 0.6
2017-May-23 18:52N 33°43' W 118°16'0 0.0
2017-May-23 18:20N 33°43' W 118°16'0 0.0
2017-May-23 18:00N 33°43' W 118°16'0 0.0
2017-May-23 17:28N 33°43' W 118°16'0 0.0
2017-May-23 16:57N 33°43' W 118°16'0 0.0
2017-May-23 16:30N 33°43' W 118°16'0 0.0
2017-May-23 15:57N 33°43' W 118°16'0 0.0
2017-May-23 15:27N 33°43' W 118°16'0 0.0
2017-May-23 15:00N 33°43' W 118°16'0 0.0
2017-May-23 13:48N 33°43' W 118°16'0 0.0
2017-May-23 13:16N 33°43' W 118°16'0 0.0
2017-May-23 12:57N 33°43' W 118°16'0 0.0
2017-May-23 12:29N 33°43' W 118°16'0 0.0
2017-May-23 11:58N 33°43' W 118°16'0 0.0
2017-May-23 11:13N 33°43' W 118°16'0 0.0
2017-May-23 10:58N 33°43' W 118°16'0 0.0
2017-May-23 10:28N 33°43' W 118°16'0 0.0
2017-May-23 10:00N 33°43' W 118°16'0 0.0
2017-May-23 09:30N 33°43' W 118°16'0 0.0
2017-May-23 09:00N 33°43' W 118°16'0 0.0
2017-May-23 08:22N 33°43' W 118°16'0 0.0
2017-May-23 08:00N 33°43' W 118°16'0 0.0
2017-May-23 07:30N 33°43' W 118°16'0 0.0
2017-May-23 06:58N 33°43' W 118°16'0 0.0
2017-May-23 06:30N 33°43' W 118°16'0 0.0
2017-May-23 05:59N 33°43' W 118°16'0 0.0
2017-May-23 05:29N 33°43' W 118°16'0 0.0
2017-May-23 05:00N 33°43' W 118°16'0 0.0
2017-May-23 04:26N 33°43' W 118°16'0 0.0
2017-May-23 03:56N 33°43' W 118°16'0 0.0
2017-May-23 03:30N 33°43' W 118°16'0 0.0
2017-May-23 03:00N 33°43' W 118°16'0 0.0
2017-May-23 02:30N 33°43' W 118°16'0 0.0
2017-May-23 01:58N 33°43' W 118°16'0 0.0
2017-May-23 01:30N 33°43' W 118°16'0 0.0
2017-May-23 01:00N 33°43' W 118°16'0 0.0
2017-May-23 00:30N 33°43' W 118°16'0 0.0
2017-May-23 00:00N 33°43' W 118°16'0 0.0
2017-May-22 23:30N 33°43' W 118°16'0 0.0
2017-May-22 23:00N 33°43' W 118°16'0 0.0
2017-May-22 22:28N 33°43' W 118°16'0 0.0
2017-May-22 22:00N 33°43' W 118°16'0 0.0
2017-May-22 21:30N 33°43' W 118°16'1 2.9
2017-May-22 20:59N 33°42' W 118°15'0 0.3
2017-May-22 20:30N 33°42' W 118°15'2 3.3
2017-May-22 20:00N 33°43' W 118°16'0 0.0
2017-May-22 19:30N 33°43' W 118°16'0 0.0
2017-May-22 19:00N 33°43' W 118°16'0 0.0
2017-May-22 18:30N 33°43' W 118°16'0 0.0
2017-May-22 18:00N 33°43' W 118°16'0 0.0
2017-May-22 17:30N 33°43' W 118°16'0 0.0
2017-May-22 17:00N 33°43' W 118°16'0 0.0
2017-May-22 16:03N 33°43' W 118°16'0 0.0
2017-May-22 15:58N 33°43' W 118°16'0 0.0
2017-May-22 15:30N 33°43' W 118°16'0 0.0
2017-May-22 14:53N 33°43' W 118°16'0 0.0
2017-May-22 14:00N 33°43' W 118°16'0 0.0
2017-May-22 13:25N 33°43' W 118°16'0 0.8
2017-May-22 13:00N 33°43' W 118°16'1 2.3
2017-May-22 12:30N 33°42' W 118°15'1 2.9
2017-May-22 12:00N 33°43' W 118°16'1 1.8
2017-May-22 11:30N 33°43' W 118°15'1 1.8
2017-May-22 11:00N 33°43' W 118°16'0 0.0
2017-May-22 10:30N 33°43' W 118°16'0 0.0
2017-May-22 10:00N 33°43' W 118°16'0 0.0
2017-May-22 09:30N 33°43' W 118°16'0 0.0
2017-May-22 09:00N 33°43' W 118°16'0 0.0
2017-May-22 08:30N 33°43' W 118°16'0 0.0
2017-May-22 08:00N 33°43' W 118°16'0 0.0
2017-May-22 07:27N 33°43' W 118°16'0 0.0
2017-May-22 07:00N 33°43' W 118°16'0 0.0
2017-May-22 06:30N 33°43' W 118°16'0 0.0
2017-May-22 06:00N 33°43' W 118°16'0 0.0
2017-May-22 05:30N 33°43' W 118°16'0 0.0
2017-May-22 05:00N 33°43' W 118°16'0 0.0
2017-May-22 04:30N 33°43' W 118°16'0 0.0
2017-May-22 04:00N 33°43' W 118°16'2 3.9
2017-May-22 03:30N 33°42' W 118°15'2 4.0
2017-May-22 03:00N 33°43' W 118°16'0 0.0
2017-May-22 02:27N 33°43' W 118°16'0 0.0
2017-May-22 01:59N 33°43' W 118°16'0 0.0
2017-May-22 01:28N 33°43' W 118°16'0 0.0
2017-May-22 01:00N 33°43' W 118°16'0 0.0
2017-May-22 00:30N 33°43' W 118°16'0 0.0
2017-May-22 00:00N 33°43' W 118°16'0 0.0
2017-May-21 23:30N 33°43' W 118°16'0 0.0
2017-May-21 23:00N 33°43' W 118°16'0 0.0
2017-May-21 22:30N 33°43' W 118°16'1 1.9
2017-May-21 22:00N 33°43' W 118°15'1 1.9
2017-May-21 21:31N 33°43' W 118°16'0 0.1
2017-May-21 21:01N 33°43' W 118°16'0 0.1
2017-May-21 20:30N 33°43' W 118°16'0 0.0
2017-May-21 20:00N 33°43' W 118°16'0 0.0
2017-May-21 19:30N 33°43' W 118°16'0 0.0
2017-May-21 19:00N 33°43' W 118°16'0 0.0
2017-May-21 18:30N 33°43' W 118°16'0 0.0
2017-May-21 18:00N 33°43' W 118°16'1 2.6
2017-May-21 17:30N 33°43' W 118°15'1 1.5
2017-May-21 16:36N 33°43' W 118°16'0 0.0
2017-May-21 16:30N 33°43' W 118°16'0 0.0
2017-May-21 16:00N 33°43' W 118°16'0 0.0
2017-May-21 15:30N 33°43' W 118°16'0 0.0
2017-May-21 15:00N 33°43' W 118°16'0 0.0
2017-May-21 14:00N 33°43' W 118°16'0 0.0
2017-May-21 13:30N 33°43' W 118°16'0 0.0
2017-May-21 13:00N 33°43' W 118°16'0 0.0
2017-May-21 12:30N 33°43' W 118°16'0 0.0
2017-May-21 12:00N 33°43' W 118°16'0 0.0
2017-May-21 11:30N 33°43' W 118°16'1 1.4
2017-May-21 11:00N 33°43' W 118°16'1 1.3
2017-May-21 10:30N 33°43' W 118°16'0 0.1
2017-May-21 10:00N 33°43' W 118°16'0 0.0
2017-May-21 09:30N 33°43' W 118°16'0 0.0
2017-May-21 09:00N 33°43' W 118°16'0 0.0
2017-May-21 08:30N 33°43' W 118°16'0 0.0
2017-May-21 08:00N 33°43' W 118°16'0 0.0
2017-May-21 07:30N 33°43' W 118°16'0 0.0
2017-May-21 07:00N 33°43' W 118°16'0 0.0
2017-May-21 06:31N 33°43' W 118°16'0 0.0
2017-May-21 06:00N 33°43' W 118°16'0 0.0
2017-May-21 05:31N 33°43' W 118°16'0 0.0
2017-May-21 05:01N 33°43' W 118°16'0 0.0
2017-May-21 04:31N 33°43' W 118°16'0 0.0
2017-May-21 03:59N 33°43' W 118°16'0 0.0
2017-May-21 03:30N 33°43' W 118°16'0 0.0
2017-May-21 03:01N 33°43' W 118°16'0 0.0
2017-May-21 02:30N 33°43' W 118°16'0 0.4
2017-May-21 02:00N 33°43' W 118°16'0 0.4
2017-May-21 01:30N 33°43' W 118°16'0 0.0
2017-May-21 01:00N 33°43' W 118°16'0 0.0
2017-May-21 00:30N 33°43' W 118°16'0 0.0
2017-May-21 00:00N 33°43' W 118°16'0 0.0
2017-May-20 23:30N 33°43' W 118°16'0 0.0
2017-May-20 23:00N 33°43' W 118°16'0 0.0
2017-May-20 22:30N 33°43' W 118°16'0 0.0
2017-May-20 22:00N 33°43' W 118°16'0 0.0
2017-May-20 21:30N 33°43' W 118°16'0 0.0
2017-May-20 21:00N 33°43' W 118°16'1 1.8
2017-May-20 20:30N 33°43' W 118°15'1 1.3
2017-May-20 19:50N 33°43' W 118°16'0 0.0
2017-May-20 19:26N 33°43' W 118°16'0 0.0
2017-May-20 18:12N 33°43' W 118°16'0 0.0
2017-May-20 18:00N 33°43' W 118°16'0 0.0
2017-May-20 17:30N 33°43' W 118°16'0 0.0
2017-May-20 17:00N 33°43' W 118°16'0 0.0
2017-May-20 16:30N 33°43' W 118°16'0 0.0
2017-May-20 16:00N 33°43' W 118°16'0 0.0
2017-May-20 15:30N 33°43' W 118°16'0 0.0
2017-May-20 15:00N 33°43' W 118°16'0 0.0
2017-May-20 14:00N 33°43' W 118°16'1 3.0
2017-May-20 13:30N 33°42' W 118°15'1 1.4
2017-May-20 13:00N 33°43' W 118°15'1 1.5
2017-May-20 12:30N 33°43' W 118°16'0 0.1
2017-May-20 12:00N 33°43' W 118°16'0 0.0
2017-May-20 11:30N 33°43' W 118°16'0 0.0
2017-May-20 11:00N 33°43' W 118°16'0 0.0
2017-May-20 10:30N 33°43' W 118°16'0 0.0
2017-May-20 10:00N 33°43' W 118°16'0 0.0
2017-May-20 09:29N 33°43' W 118°16'0 0.0
2017-May-20 09:00N 33°43' W 118°16'0 0.0
2017-May-20 08:30N 33°43' W 118°16'0 0.0
2017-May-20 08:00N 33°43' W 118°16'2 4.0
2017-May-20 07:30N 33°43' W 118°14'2 3.9
2017-May-20 07:01N 33°43' W 118°16'0 0.0
2017-May-20 06:31N 33°43' W 118°16'0 0.0
2017-May-20 06:01N 33°43' W 118°16'0 0.0
2017-May-20 05:30N 33°43' W 118°16'0 0.0
2017-May-20 05:01N 33°43' W 118°16'0 0.0
2017-May-20 04:31N 33°43' W 118°16'0 0.0
2017-May-20 04:00N 33°43' W 118°16'1 0.8
2017-May-20 02:19N 33°42' W 118°15'1 4.4
2017-May-20 02:00N 33°43' W 118°16'0 0.0
2017-May-20 01:29N 33°43' W 118°16'2 3.7
2017-May-20 01:00N 33°42' W 118°15'2 3.5
2017-May-20 00:30N 33°43' W 118°16'0 0.0
2017-May-20 00:00N 33°43' W 118°16'0 0.0
2017-May-19 23:30N 33°43' W 118°16'0 0.0
2017-May-19 23:00N 33°43' W 118°16'0 0.0
2017-May-19 22:30N 33°43' W 118°16'0 0.9
2017-May-19 22:00N 33°43' W 118°16'0 0.9
2017-May-19 21:30N 33°43' W 118°16'0 0.0
2017-May-19 20:59N 33°43' W 118°16'0 0.0
2017-May-19 20:29N 33°43' W 118°16'0 0.0
2017-May-19 19:53N 33°43' W 118°16'0 0.0
2017-May-19 19:30N 33°43' W 118°16'0 0.0
2017-May-19 18:33N 33°43' W 118°16'0 0.0
2017-May-19 18:29N 33°43' W 118°16'0 0.0
2017-May-19 18:00N 33°43' W 118°16'0 0.0
2017-May-19 17:30N 33°43' W 118°16'0 0.8
2017-May-19 17:00N 33°43' W 118°16'0 0.8
2017-May-19 16:30N 33°43' W 118°16'0 0.0
2017-May-19 16:00N 33°43' W 118°16'0 0.0
2017-May-19 15:30N 33°43' W 118°16'0 0.0
2017-May-19 15:00N 33°43' W 118°16'0 0.0
2017-May-19 14:00N 33°43' W 118°16'0 0.0
2017-May-19 13:30N 33°43' W 118°16'0 0.0
2017-May-19 13:00N 33°43' W 118°16'0 0.0
2017-May-19 12:30N 33°43' W 118°16'510.3
2017-May-19 12:00N 33°40' W 118°11'510.2
2017-May-19 11:30N 33°43' W 118°16'0 0.1
2017-May-19 11:00N 33°43' W 118°16'0 0.0
2017-May-19 10:25N 33°43' W 118°16'0 0.0
2017-May-19 10:00N 33°43' W 118°16'0 0.0
2017-May-19 09:30N 33°43' W 118°16'0 0.0
2017-May-19 09:00N 33°43' W 118°16'0 0.0
2017-May-19 08:30N 33°43' W 118°16'0 0.0
2017-May-19 07:56N 33°43' W 118°16'0 0.0
2017-May-19 07:30N 33°43' W 118°16'1 2.9
2017-May-19 07:00N 33°42' W 118°15'1 2.9
2017-May-19 06:30N 33°43' W 118°16'0 0.0
2017-May-19 06:00N 33°43' W 118°16'0 0.0
2017-May-19 05:30N 33°43' W 118°16'0 0.0
2017-May-19 05:00N 33°43' W 118°16'0 0.0
2017-May-19 04:30N 33°43' W 118°16'0 0.0
2017-May-19 04:00N 33°43' W 118°16'0 0.0
2017-May-19 03:30N 33°43' W 118°16'0 0.0
2017-May-19 03:00N 33°43' W 118°16'0 0.0
2017-May-19 02:30N 33°43' W 118°16'0 0.8
2017-May-19 02:00N 33°43' W 118°16'0 0.6
2017-May-19 01:30N 33°43' W 118°16'1 1.1
2017-May-19 01:00N 33°43' W 118°16'0 0.0
2017-May-19 00:31N 33°43' W 118°16'0 0.0
2017-May-19 00:00N 33°43' W 118°16'0 0.0
2017-May-18 23:31N 33°43' W 118°16'0 0.0
2017-May-18 23:00N 33°43' W 118°16'3 6.0
2017-May-18 22:29N 33°41' W 118°14'3 6.5
2017-May-18 22:00N 33°43' W 118°16'0 0.0
2017-May-18 21:29N 33°43' W 118°16'3 7.0
2017-May-18 21:00N 33°40' W 118°14'3 6.9
2017-May-18 20:30N 33°43' W 118°16'  

Dump ship's entire track history